sensor_id;sensor_type;location;lat;lon;timestamp;pressure;altitude;pressure_sealevel;temperature;humidity
16664;BME280;8445;51.270;9.434;2023-02-02T00:00:46;99585.97;;;6.04;65.53
16664;BME280;8445;51.270;9.434;2023-02-02T00:03:12;99576.63;;;5.99;65.71
16664;BME280;8445;51.270;9.434;2023-02-02T00:05:37;99581.81;;;6.00;65.75
16664;BME280;8445;51.270;9.434;2023-02-02T00:08:03;99579.91;;;6.04;65.63
16664;BME280;8445;51.270;9.434;2023-02-02T00:10:28;99582.88;;;5.96;65.62
16664;BME280;8445;51.270;9.434;2023-02-02T00:12:54;99586.59;;;5.92;65.70
16664;BME280;8445;51.270;9.434;2023-02-02T00:15:23;99588.47;;;5.90;65.78
16664;BME280;8445;51.270;9.434;2023-02-02T00:17:48;99582.22;;;5.92;65.81
16664;BME280;8445;51.270;9.434;2023-02-02T00:20:14;99583.41;;;5.87;65.76
16664;BME280;8445;51.270;9.434;2023-02-02T00:22:39;99600.84;;;5.88;65.81
16664;BME280;8445;51.270;9.434;2023-02-02T00:25:05;99599.06;;;5.88;65.81
16664;BME280;8445;51.270;9.434;2023-02-02T00:27:31;99601.59;;;5.90;65.90
16664;BME280;8445;51.270;9.434;2023-02-02T00:29:56;99599.81;;;5.90;65.92
16664;BME280;8445;51.270;9.434;2023-02-02T00:32:22;99597.25;;;5.89;65.47
16664;BME280;8445;51.270;9.434;2023-02-02T00:34:47;99589.84;;;5.97;65.59
16664;BME280;8445;51.270;9.434;2023-02-02T00:37:13;99591.69;;;5.95;65.24
16664;BME280;8445;51.270;9.434;2023-02-02T00:39:38;99596.34;;;5.90;65.67
16664;BME280;8445;51.270;9.434;2023-02-02T00:42:04;99600.09;;;5.86;65.50
16664;BME280;8445;51.270;9.434;2023-02-02T00:44:29;99588.97;;;5.81;65.41
16664;BME280;8445;51.270;9.434;2023-02-02T00:47:14;99598.31;;;5.69;65.45
16664;BME280;8445;51.270;9.434;2023-02-02T00:49:41;99596.88;;;5.63;65.49
16664;BME280;8445;51.270;9.434;2023-02-02T00:52:06;99598.72;;;5.61;65.60
16664;BME280;8445;51.270;9.434;2023-02-02T00:54:32;99602.44;;;5.57;65.55
16664;BME280;8445;51.270;9.434;2023-02-02T00:56:57;99598.28;;;5.53;65.33
16664;BME280;8445;51.270;9.434;2023-02-02T00:59:22;99611.72;;;5.46;65.41
16664;BME280;8445;51.270;9.434;2023-02-02T01:01:48;99599.81;;;5.39;65.20
16664;BME280;8445;51.270;9.434;2023-02-02T01:04:13;99608.94;;;5.32;65.12
16664;BME280;8445;51.270;9.434;2023-02-02T01:06:39;99612.47;;;5.31;65.38
16664;BME280;8445;51.270;9.434;2023-02-02T01:09:07;99617.56;;;5.34;65.35
16664;BME280;8445;51.270;9.434;2023-02-02T01:11:33;99610.47;;;5.36;65.43
16664;BME280;8445;51.270;9.434;2023-02-02T01:13:58;99609.41;;;5.40;65.30
16664;BME280;8445;51.270;9.434;2023-02-02T01:16:24;99610.47;;;5.36;65.28
16664;BME280;8445;51.270;9.434;2023-02-02T01:18:49;99608.47;;;5.41;65.27
16664;BME280;8445;51.270;9.434;2023-02-02T01:21:15;99609.19;;;5.45;65.22
16664;BME280;8445;51.270;9.434;2023-02-02T01:23:40;99609.84;;;5.48;65.07
16664;BME280;8445;51.270;9.434;2023-02-02T01:26:08;99615.72;;;5.36;64.95
16664;BME280;8445;51.270;9.434;2023-02-02T01:28:34;99608.09;;;5.31;65.28
16664;BME280;8445;51.270;9.434;2023-02-02T01:31:09;99617.59;;;5.16;65.29
16664;BME280;8445;51.270;9.434;2023-02-02T01:33:35;99619.28;;;5.17;65.21
16664;BME280;8445;51.270;9.434;2023-02-02T01:36:06;99613.56;;;5.09;65.41
16664;BME280;8445;51.270;9.434;2023-02-02T01:38:32;99614.72;;;5.21;65.40
16664;BME280;8445;51.270;9.434;2023-02-02T01:40:59;99610.97;;;5.27;64.98
16664;BME280;8445;51.270;9.434;2023-02-02T01:45:52;99622.22;;;5.11;65.21
16664;BME280;8445;51.270;9.434;2023-02-02T01:48:24;99645.88;;;5.10;65.17
16664;BME280;8445;51.270;9.434;2023-02-02T01:50:54;99643.81;;;5.16;65.42
16664;BME280;8445;51.270;9.434;2023-02-02T01:53:20;99635.81;;;5.19;65.12
16664;BME280;8445;51.270;9.434;2023-02-02T01:55:47;99627.69;;;5.24;64.89
16664;BME280;8445;51.270;9.434;2023-02-02T01:58:20;99632.41;;;5.17;65.34
16664;BME280;8445;51.270;9.434;2023-02-02T02:00:47;99634.09;;;5.18;65.48
16664;BME280;8445;51.270;9.434;2023-02-02T02:03:19;99627.31;;;5.14;65.50
16664;BME280;8445;51.270;9.434;2023-02-02T02:06:01;99635.94;;;5.16;65.32
16664;BME280;8445;51.270;9.434;2023-02-02T02:08:41;99640.28;;;5.17;65.30
16664;BME280;8445;51.270;9.434;2023-02-02T02:11:08;99632.31;;;5.19;64.62
16664;BME280;8445;51.270;9.434;2023-02-02T02:13:36;99631.16;;;5.07;65.17
16664;BME280;8445;51.270;9.434;2023-02-02T02:21:28;99639.91;;;4.88;65.31
16664;BME280;8445;51.270;9.434;2023-02-02T02:24:43;99644.53;;;4.83;65.45
16664;BME280;8445;51.270;9.434;2023-02-02T02:27:57;99640.19;;;4.82;66.50
16664;BME280;8445;51.270;9.434;2023-02-02T02:33:55;99638.97;;;4.89;66.76
16664;BME280;8445;51.270;9.434;2023-02-02T02:36:38;99634.47;;;4.93;65.42
16664;BME280;8445;51.270;9.434;2023-02-02T02:41:43;99648.28;;;4.78;66.21
16664;BME280;8445;51.270;9.434;2023-02-02T02:44:13;99645.09;;;4.90;66.18
16664;BME280;8445;51.270;9.434;2023-02-02T02:46:41;99650.53;;;4.85;66.55
16664;BME280;8445;51.270;9.434;2023-02-02T02:49:08;99661.50;;;4.94;66.19
16664;BME280;8445;51.270;9.434;2023-02-02T02:54:07;99662.22;;;4.97;66.20
16664;BME280;8445;51.270;9.434;2023-02-02T02:56:43;99676.66;;;5.06;66.13
16664;BME280;8445;51.270;9.434;2023-02-02T03:01:53;99671.41;;;5.06;65.67
16664;BME280;8445;51.270;9.434;2023-02-02T03:04:31;99666.75;;;4.94;66.42
16664;BME280;8445;51.270;9.434;2023-02-02T03:07:09;99668.31;;;4.98;65.92
16664;BME280;8445;51.270;9.434;2023-02-02T03:09:40;99671.84;;;4.97;66.18
16664;BME280;8445;51.270;9.434;2023-02-02T03:12:08;99657.81;;;4.98;66.57
16664;BME280;8445;51.270;9.434;2023-02-02T03:14:34;99675.94;;;5.02;66.35
16664;BME280;8445;51.270;9.434;2023-02-02T03:17:00;99664.94;;;5.13;66.13
16664;BME280;8445;51.270;9.434;2023-02-02T03:19:25;99657.69;;;5.18;66.06
16664;BME280;8445;51.270;9.434;2023-02-02T03:21:51;99668.69;;;5.08;66.48
16664;BME280;8445;51.270;9.434;2023-02-02T03:24:16;99667.28;;;5.19;66.28
16664;BME280;8445;51.270;9.434;2023-02-02T03:26:42;99673.28;;;5.22;65.85
16664;BME280;8445;51.270;9.434;2023-02-02T03:29:07;99668.25;;;5.17;66.27
16664;BME280;8445;51.270;9.434;2023-02-02T03:31:33;99665.44;;;5.22;66.12
16664;BME280;8445;51.270;9.434;2023-02-02T03:33:58;99664.50;;;5.23;66.11
16664;BME280;8445;51.270;9.434;2023-02-02T03:36:24;99676.06;;;5.18;66.20
16664;BME280;8445;51.270;9.434;2023-02-02T03:38:49;99674.06;;;5.24;66.26
16664;BME280;8445;51.270;9.434;2023-02-02T03:41:14;99673.91;;;5.27;66.61
16664;BME280;8445;51.270;9.434;2023-02-02T03:43:40;99677.06;;;5.33;66.49
16664;BME280;8445;51.270;9.434;2023-02-02T03:46:06;99683.88;;;5.38;66.44
16664;BME280;8445;51.270;9.434;2023-02-02T03:48:36;99679.16;;;5.44;66.54
16664;BME280;8445;51.270;9.434;2023-02-02T03:51:10;99683.16;;;5.52;66.51
16664;BME280;8445;51.270;9.434;2023-02-02T03:53:36;99681.31;;;5.54;66.23
16664;BME280;8445;51.270;9.434;2023-02-02T03:56:02;99676.06;;;5.54;66.27
16664;BME280;8445;51.270;9.434;2023-02-02T03:58:28;99678.78;;;5.52;66.39
16664;BME280;8445;51.270;9.434;2023-02-02T04:00:58;99685.94;;;5.48;66.87
16664;BME280;8445;51.270;9.434;2023-02-02T04:03:24;99679.47;;;5.56;66.35
16664;BME280;8445;51.270;9.434;2023-02-02T04:05:49;99674.22;;;5.56;66.43
16664;BME280;8445;51.270;9.434;2023-02-02T04:08:15;99677.88;;;5.53;66.39
16664;BME280;8445;51.270;9.434;2023-02-02T04:10:41;99670.66;;;5.57;66.55
16664;BME280;8445;51.270;9.434;2023-02-02T04:13:07;99676.38;;;5.65;66.53
16664;BME280;8445;51.270;9.434;2023-02-02T04:15:32;99678.44;;;5.76;66.34
16664;BME280;8445;51.270;9.434;2023-02-02T04:17:58;99681.78;;;5.79;66.33
16664;BME280;8445;51.270;9.434;2023-02-02T04:20:23;99685.69;;;5.88;66.03
16664;BME280;8445;51.270;9.434;2023-02-02T04:22:49;99669.28;;;5.85;66.04
16664;BME280;8445;51.270;9.434;2023-02-02T04:25:14;99686.63;;;5.87;66.09
16664;BME280;8445;51.270;9.434;2023-02-02T04:27:39;99690.13;;;5.88;66.11
16664;BME280;8445;51.270;9.434;2023-02-02T04:30:05;99690.13;;;5.88;66.11
16664;BME280;8445;51.270;9.434;2023-02-02T04:32:31;99700.44;;;5.91;66.30
16664;BME280;8445;51.270;9.434;2023-02-02T04:34:56;99710.16;;;5.89;66.61
16664;BME280;8445;51.270;9.434;2023-02-02T04:37:22;99692.50;;;5.92;66.39
16664;BME280;8445;51.270;9.434;2023-02-02T04:39:47;99705.47;;;5.96;66.32
16664;BME280;8445;51.270;9.434;2023-02-02T04:42:13;99703.41;;;6.02;66.19
16664;BME280;8445;51.270;9.434;2023-02-02T04:44:38;99707.81;;;6.02;66.14
16664;BME280;8445;51.270;9.434;2023-02-02T04:47:04;99705.38;;;5.97;66.44
16664;BME280;8445;51.270;9.434;2023-02-02T04:49:29;99705.53;;;5.94;66.39
16664;BME280;8445;51.270;9.434;2023-02-02T04:51:54;99693.31;;;5.93;66.67
16664;BME280;8445;51.270;9.434;2023-02-02T04:54:20;99702.28;;;5.89;66.60
16664;BME280;8445;51.270;9.434;2023-02-02T04:56:45;99721.69;;;5.86;66.55
16664;BME280;8445;51.270;9.434;2023-02-02T04:59:11;99714.84;;;5.84;66.46
16664;BME280;8445;51.270;9.434;2023-02-02T05:01:37;99715.91;;;5.79;66.12
16664;BME280;8445;51.270;9.434;2023-02-02T05:04:02;99700.22;;;5.78;66.36
16664;BME280;8445;51.270;9.434;2023-02-02T05:06:28;99708.03;;;5.79;66.40
16664;BME280;8445;51.270;9.434;2023-02-02T05:08:53;99719.31;;;5.82;66.30
16664;BME280;8445;51.270;9.434;2023-02-02T05:11:21;99717.81;;;5.76;66.60
16664;BME280;8445;51.270;9.434;2023-02-02T05:13:52;99720.59;;;5.73;66.42
16664;BME280;8445;51.270;9.434;2023-02-02T05:16:20;99722.59;;;5.68;66.79
16664;BME280;8445;51.270;9.434;2023-02-02T05:18:52;99717.22;;;5.71;66.64
16664;BME280;8445;51.270;9.434;2023-02-02T05:21:20;99721.00;;;5.65;66.48
16664;BME280;8445;51.270;9.434;2023-02-02T05:23:46;99722.00;;;5.62;66.82
16664;BME280;8445;51.270;9.434;2023-02-02T05:26:23;99722.13;;;5.59;67.39
16664;BME280;8445;51.270;9.434;2023-02-02T05:28:50;99717.44;;;5.48;67.59
16664;BME280;8445;51.270;9.434;2023-02-02T05:31:23;99723.22;;;5.38;68.54
16664;BME280;8445;51.270;9.434;2023-02-02T05:33:50;99726.22;;;5.47;67.12
16664;BME280;8445;51.270;9.434;2023-02-02T05:36:15;99732.69;;;5.40;67.47
16664;BME280;8445;51.270;9.434;2023-02-02T05:38:40;99737.16;;;5.38;67.18
16664;BME280;8445;51.270;9.434;2023-02-02T05:41:06;99727.91;;;5.31;67.68
16664;BME280;8445;51.270;9.434;2023-02-02T05:43:32;99742.72;;;5.32;67.21
16664;BME280;8445;51.270;9.434;2023-02-02T05:45:58;99741.41;;;5.23;68.23
16664;BME280;8445;51.270;9.434;2023-02-02T05:48:24;99745.81;;;5.23;67.85
16664;BME280;8445;51.270;9.434;2023-02-02T05:53:29;99750.47;;;5.16;68.03
16664;BME280;8445;51.270;9.434;2023-02-02T05:55:54;99738.72;;;5.05;68.17
16664;BME280;8445;51.270;9.434;2023-02-02T05:58:20;99739.88;;;5.00;68.51
16664;BME280;8445;51.270;9.434;2023-02-02T06:00:45;99743.69;;;4.93;68.67
16664;BME280;8445;51.270;9.434;2023-02-02T06:03:11;99737.19;;;4.82;69.90
16664;BME280;8445;51.270;9.434;2023-02-02T06:05:37;99747.09;;;4.75;70.16
16664;BME280;8445;51.270;9.434;2023-02-02T06:08:03;99743.00;;;4.70;69.66
16664;BME280;8445;51.270;9.434;2023-02-02T06:10:29;99739.47;;;4.71;69.67
16664;BME280;8445;51.270;9.434;2023-02-02T06:12:56;99752.84;;;4.65;70.15
16664;BME280;8445;51.270;9.434;2023-02-02T06:15:22;99752.72;;;4.68;69.72
16664;BME280;8445;51.270;9.434;2023-02-02T06:17:47;99757.19;;;4.66;69.89
16664;BME280;8445;51.270;9.434;2023-02-02T06:20:13;99760.72;;;4.65;69.50
16664;BME280;8445;51.270;9.434;2023-02-02T06:22:38;99760.56;;;4.68;69.58
16664;BME280;8445;51.270;9.434;2023-02-02T06:25:04;99762.56;;;4.63;70.19
16664;BME280;8445;51.270;9.434;2023-02-02T06:27:38;99766.75;;;4.67;69.89
16664;BME280;8445;51.270;9.434;2023-02-02T06:30:03;99778.13;;;4.66;69.76
16664;BME280;8445;51.270;9.434;2023-02-02T06:32:29;99778.13;;;4.66;70.16
16664;BME280;8445;51.270;9.434;2023-02-02T06:34:59;99782.50;;;4.65;69.94
16664;BME280;8445;51.270;9.434;2023-02-02T06:37:24;99772.91;;;4.66;69.84
16664;BME280;8445;51.270;9.434;2023-02-02T06:39:53;99770.28;;;4.66;69.73
16664;BME280;8445;51.270;9.434;2023-02-02T06:42:18;99773.69;;;4.68;69.75
16664;BME280;8445;51.270;9.434;2023-02-02T06:44:43;99777.28;;;4.65;69.75
16664;BME280;8445;51.270;9.434;2023-02-02T06:47:09;99780.88;;;4.63;69.66
16664;BME280;8445;51.270;9.434;2023-02-02T06:49:34;99792.16;;;4.65;69.68
16664;BME280;8445;51.270;9.434;2023-02-02T06:52:00;99791.28;;;4.64;70.03
16664;BME280;8445;51.270;9.434;2023-02-02T06:54:26;99788.75;;;4.63;70.20
16664;BME280;8445;51.270;9.434;2023-02-02T06:57:09;99799.38;;;4.59;69.98
16664;BME280;8445;51.270;9.434;2023-02-02T06:59:35;99794.13;;;4.59;70.16
16664;BME280;8445;51.270;9.434;2023-02-02T07:02:00;99788.88;;;4.59;70.04
16664;BME280;8445;51.270;9.434;2023-02-02T07:04:26;99811.69;;;4.57;70.82
16664;BME280;8445;51.270;9.434;2023-02-02T07:06:51;99805.84;;;4.51;70.67
16664;BME280;8445;51.270;9.434;2023-02-02T07:09:17;99807.63;;;4.50;70.79
16664;BME280;8445;51.270;9.434;2023-02-02T07:11:43;99815.34;;;4.53;70.78
16664;BME280;8445;51.270;9.434;2023-02-02T07:14:12;99813.66;;;4.52;70.55
16664;BME280;8445;51.270;9.434;2023-02-02T07:16:39;99814.44;;;4.54;70.89
16664;BME280;8445;51.270;9.434;2023-02-02T07:19:05;99817.84;;;4.56;70.85
16664;BME280;8445;51.270;9.434;2023-02-02T07:21:34;99816.00;;;4.58;70.59
16664;BME280;8445;51.270;9.434;2023-02-02T07:24:04;99818.75;;;4.55;70.74
16664;BME280;8445;51.270;9.434;2023-02-02T07:26:29;99823.00;;;4.58;70.60
16664;BME280;8445;51.270;9.434;2023-02-02T07:28:55;99818.63;;;4.58;70.66
16664;BME280;8445;51.270;9.434;2023-02-02T07:31:23;99818.63;;;4.58;70.84
16664;BME280;8445;51.270;9.434;2023-02-02T07:33:49;99823.00;;;4.58;70.97
16664;BME280;8445;51.270;9.434;2023-02-02T07:36:17;99825.72;;;4.56;70.67
16664;BME280;8445;51.270;9.434;2023-02-02T07:38:47;99831.00;;;4.55;70.72
16664;BME280;8445;51.270;9.434;2023-02-02T07:41:13;99852.03;;;4.53;71.08
16664;BME280;8445;51.270;9.434;2023-02-02T07:43:39;99853.88;;;4.51;71.24
16664;BME280;8445;51.270;9.434;2023-02-02T07:46:07;99855.25;;;4.39;70.64
16664;BME280;8445;51.270;9.434;2023-02-02T07:48:35;99865.75;;;4.39;70.60
16664;BME280;8445;51.270;9.434;2023-02-02T07:51:02;99874.78;;;4.32;70.71
16664;BME280;8445;51.270;9.434;2023-02-02T07:53:28;99873.13;;;4.29;70.83
16664;BME280;8445;51.270;9.434;2023-02-02T07:56:10;99877.50;;;4.29;70.86
16664;BME280;8445;51.270;9.434;2023-02-02T07:58:36;99880.13;;;4.29;71.04
16664;BME280;8445;51.270;9.434;2023-02-02T08:01:03;99885.63;;;4.23;70.81
16664;BME280;8445;51.270;9.434;2023-02-02T08:03:29;99886.66;;;4.19;70.76
16664;BME280;8445;51.270;9.434;2023-02-02T08:05:55;99896.41;;;4.15;71.02
16664;BME280;8445;51.270;9.434;2023-02-02T08:08:21;99903.63;;;4.10;71.15
16664;BME280;8445;51.270;9.434;2023-02-02T08:10:51;99891.38;;;4.10;71.66
16664;BME280;8445;51.270;9.434;2023-02-02T08:13:17;99891.38;;;4.10;71.12
16664;BME280;8445;51.270;9.434;2023-02-02T08:15:43;99892.28;;;4.09;71.44
16664;BME280;8445;51.270;9.434;2023-02-02T08:18:08;99886.84;;;4.14;71.67
16664;BME280;8445;51.270;9.434;2023-02-02T08:20:33;99891.81;;;4.20;71.20
16664;BME280;8445;51.270;9.434;2023-02-02T08:22:59;99893.53;;;4.21;71.10
16664;BME280;8445;51.270;9.434;2023-02-02T08:25:25;99895.22;;;4.22;71.17
16664;BME280;8445;51.270;9.434;2023-02-02T08:27:57;99884.75;;;4.22;71.25
16664;BME280;8445;51.270;9.434;2023-02-02T08:30:23;99896.81;;;4.26;70.90
16664;BME280;8445;51.270;9.434;2023-02-02T08:32:49;99906.38;;;4.27;70.89
16664;BME280;8445;51.270;9.434;2023-02-02T08:35:14;99911.81;;;4.23;71.05
16664;BME280;8445;51.270;9.434;2023-02-02T08:37:40;99926.84;;;4.18;70.78
16664;BME280;8445;51.270;9.434;2023-02-02T08:40:06;99919.06;;;4.16;71.27
16664;BME280;8445;51.270;9.434;2023-02-02T08:42:32;99916.44;;;4.16;71.08
16664;BME280;8445;51.270;9.434;2023-02-02T08:44:57;99921.66;;;4.16;71.09
16664;BME280;8445;51.270;9.434;2023-02-02T08:47:23;99919.84;;;4.18;71.46
16664;BME280;8445;51.270;9.434;2023-02-02T08:49:48;99920.50;;;4.23;71.02
16664;BME280;8445;51.270;9.434;2023-02-02T08:52:13;99926.53;;;4.25;71.64
16664;BME280;8445;51.270;9.434;2023-02-02T08:54:39;99923.00;;;4.26;71.79
16664;BME280;8445;51.270;9.434;2023-02-02T08:57:04;99922.94;;;4.28;71.42
16664;BME280;8445;51.270;9.434;2023-02-02T08:59:30;99935.06;;;4.30;71.48
16664;BME280;8445;51.270;9.434;2023-02-02T09:01:56;99938.47;;;4.33;71.64
16664;BME280;8445;51.270;9.434;2023-02-02T09:04:22;99935.00;;;4.32;71.64
16664;BME280;8445;51.270;9.434;2023-02-02T09:06:47;99933.09;;;4.36;71.54
16664;BME280;8445;51.270;9.434;2023-02-02T09:09:14;99935.72;;;4.36;71.78
16664;BME280;8445;51.270;9.434;2023-02-02T09:11:41;99948.69;;;4.39;71.68
16664;BME280;8445;51.270;9.434;2023-02-02T09:14:11;99936.47;;;4.39;71.56
16664;BME280;8445;51.270;9.434;2023-02-02T09:16:37;99938.28;;;4.37;71.46
16664;BME280;8445;51.270;9.434;2023-02-02T09:19:04;99932.97;;;4.39;71.54
16664;BME280;8445;51.270;9.434;2023-02-02T09:21:31;99925.13;;;4.39;71.66
16664;BME280;8445;51.270;9.434;2023-02-02T09:24:07;99943.31;;;4.42;71.83
16664;BME280;8445;51.270;9.434;2023-02-02T09:26:33;99951.97;;;4.44;71.65
16664;BME280;8445;51.270;9.434;2023-02-02T09:29:01;99946.78;;;4.42;71.71
16664;BME280;8445;51.270;9.434;2023-02-02T09:31:29;99952.19;;;4.39;72.12
16664;BME280;8445;51.270;9.434;2023-02-02T09:33:59;99957.34;;;4.41;71.97
16664;BME280;8445;51.270;9.434;2023-02-02T09:36:25;99962.69;;;4.38;71.78
16664;BME280;8445;51.270;9.434;2023-02-02T09:38:51;99969.66;;;4.39;72.23
16664;BME280;8445;51.270;9.434;2023-02-02T09:51:57;99978.19;;;4.44;71.96
16664;BME280;8445;51.270;9.434;2023-02-02T09:54:39;99980.00;;;4.42;72.07
16664;BME280;8445;51.270;9.434;2023-02-02T09:57:21;99980.13;;;4.39;72.14
16664;BME280;8445;51.270;9.434;2023-02-02T09:59:50;99990.59;;;4.39;71.98
16664;BME280;8445;51.270;9.434;2023-02-02T10:02:36;99989.50;;;4.44;72.27
16664;BME280;8445;51.270;9.434;2023-02-02T10:05:16;99989.44;;;4.46;72.33
16664;BME280;8445;51.270;9.434;2023-02-02T10:07:47;99993.88;;;4.44;72.12
16664;BME280;8445;51.270;9.434;2023-02-02T10:10:21;99998.47;;;4.39;72.36
16664;BME280;8445;51.270;9.434;2023-02-02T10:13:04;100003.81;;;4.36;72.61
16664;BME280;8445;51.270;9.434;2023-02-02T10:16:05;100002.00;;;4.38;71.97
16664;BME280;8445;51.270;9.434;2023-02-02T10:18:40;100000.41;;;4.34;72.11
16664;BME280;8445;51.270;9.434;2023-02-02T10:21:18;100001.31;;;4.33;72.12
16664;BME280;8445;51.270;9.434;2023-02-02T10:23:46;100006.69;;;4.29;72.24
16664;BME280;8445;51.270;9.434;2023-02-02T10:26:37;100009.19;;;4.33;72.11
16664;BME280;8445;51.270;9.434;2023-02-02T10:29:16;100016.31;;;4.29;72.28
16664;BME280;8445;51.270;9.434;2023-02-02T10:32:32;100006.69;;;4.29;72.64
16664;BME280;8445;51.270;9.434;2023-02-02T10:43:06;100024.91;;;4.33;72.12
16664;BME280;8445;51.270;9.434;2023-02-02T10:45:57;100022.16;;;4.36;71.52
16664;BME280;8445;51.270;9.434;2023-02-02T10:48:30;100031.59;;;4.40;71.33
16664;BME280;8445;51.270;9.434;2023-02-02T10:51:26;100028.16;;;4.39;71.70
16664;BME280;8445;51.270;9.434;2023-02-02T10:53:54;100026.50;;;4.37;70.80
16664;BME280;8445;51.270;9.434;2023-02-02T10:56:36;100039.47;;;4.40;71.40
16664;BME280;8445;51.270;9.434;2023-02-02T10:59:20;100028.88;;;4.43;71.40
16664;BME280;8445;51.270;9.434;2023-02-02T11:01:49;100034.03;;;4.44;71.32
16664;BME280;8445;51.270;9.434;2023-02-02T11:04:16;100035.81;;;4.44;71.62
16664;BME280;8445;51.270;9.434;2023-02-02T11:07:01;100036.81;;;4.41;71.67
16664;BME280;8445;51.270;9.434;2023-02-02T11:09:30;100034.94;;;4.43;71.84
16664;BME280;8445;51.270;9.434;2023-02-02T11:14:53;100041.22;;;4.62;71.76
16664;BME280;8445;51.270;9.434;2023-02-02T11:17:23;100046.34;;;4.65;71.39
16664;BME280;8445;51.270;9.434;2023-02-02T11:19:49;100051.59;;;4.65;71.98
16664;BME280;8445;51.270;9.434;2023-02-02T11:22:36;100055.78;;;4.69;71.86
16664;BME280;8445;51.270;9.434;2023-02-02T11:25:26;100054.81;;;4.71;71.58
16664;BME280;8445;51.270;9.434;2023-02-02T11:27:54;100051.34;;;4.71;71.63
16664;BME280;8445;51.270;9.434;2023-02-02T11:30:31;100047.97;;;4.67;71.48
16664;BME280;8445;51.270;9.434;2023-02-02T11:32:58;100049.09;;;4.62;71.83
16664;BME280;8445;51.270;9.434;2023-02-02T11:35:25;100052.50;;;4.64;71.94
16664;BME280;8445;51.270;9.434;2023-02-02T11:38:09;100058.25;;;4.72;72.07
16664;BME280;8445;51.270;9.434;2023-02-02T11:40:43;100058.69;;;4.83;72.22
16664;BME280;8445;51.270;9.434;2023-02-02T11:46:04;100058.84;;;5.01;72.25
16664;BME280;8445;51.270;9.434;2023-02-02T11:48:36;100067.16;;;5.11;72.13
16664;BME280;8445;51.270;9.434;2023-02-02T11:51:04;100068.16;;;5.08;72.32
16664;BME280;8445;51.270;9.434;2023-02-02T11:53:35;100069.84;;;5.09;72.35
16664;BME280;8445;51.270;9.434;2023-02-02T11:56:09;100067.03;;;5.14;72.39
16664;BME280;8445;51.270;9.434;2023-02-02T11:58:51;100059.28;;;5.11;72.32
16664;BME280;8445;51.270;9.434;2023-02-02T12:01:32;100063.16;;;5.02;72.16
16664;BME280;8445;51.270;9.434;2023-02-02T12:04:02;100071.41;;;4.93;72.32
16664;BME280;8445;51.270;9.434;2023-02-02T12:06:39;100070.75;;;4.87;72.80
16664;BME280;8445;51.270;9.434;2023-02-02T12:09:18;100076.72;;;4.91;72.89
16664;BME280;8445;51.270;9.434;2023-02-02T12:17:44;100079.94;;;4.98;72.59
16664;BME280;8445;51.270;9.434;2023-02-02T12:20:25;100081.78;;;4.96;72.15
16664;BME280;8445;51.270;9.434;2023-02-02T12:23:29;100083.47;;;4.97;72.78
16664;BME280;8445;51.270;9.434;2023-02-02T12:26:03;100080.84;;;4.97;72.57
16664;BME280;8445;51.270;9.434;2023-02-02T12:34:20;100080.44;;;4.85;72.96
16664;BME280;8445;51.270;9.434;2023-02-02T12:37:31;100088.06;;;4.92;73.02
16664;BME280;8445;51.270;9.434;2023-02-02T12:43:06;100077.56;;;4.92;73.02
16664;BME280;8445;51.270;9.434;2023-02-02T12:46:04;100088.50;;;5.01;73.10
16664;BME280;8445;51.270;9.434;2023-02-02T12:51:30;100075.94;;;5.10;73.15
16664;BME280;8445;51.270;9.434;2023-02-02T12:57:01;100079.97;;;5.18;73.16
16664;BME280;8445;51.270;9.434;2023-02-02T13:08:13;100089.53;;;5.40;72.97
16664;BME280;8445;51.270;9.434;2023-02-02T13:10:48;100084.81;;;5.48;72.80
16664;BME280;8445;51.270;9.434;2023-02-02T13:13:30;100084.81;;;5.48;72.51
16664;BME280;8445;51.270;9.434;2023-02-02T13:16:09;100076.78;;;5.52;72.60
16664;BME280;8445;51.270;9.434;2023-02-02T13:19:06;100080.41;;;5.49;72.77
16664;BME280;8445;51.270;9.434;2023-02-02T13:21:36;100078.63;;;5.49;72.77
16664;BME280;8445;51.270;9.434;2023-02-02T13:24:09;100070.72;;;5.51;72.94
16664;BME280;8445;51.270;9.434;2023-02-02T13:26:41;100080.06;;;5.57;73.08
16664;BME280;8445;51.270;9.434;2023-02-02T13:34:52;100084.19;;;5.62;72.36
16664;BME280;8445;51.270;9.434;2023-02-02T13:40:31;100090.69;;;5.54;72.48
16664;BME280;8445;51.270;9.434;2023-02-02T13:46:14;100098.44;;;5.36;72.48
16664;BME280;8445;51.270;9.434;2023-02-02T13:55:00;100105.38;;;5.37;72.27
16664;BME280;8445;51.270;9.434;2023-02-02T14:00:16;100101.19;;;5.54;72.77
16664;BME280;8445;51.270;9.434;2023-02-02T14:02:53;100108.03;;;5.58;72.27
16664;BME280;8445;51.270;9.434;2023-02-02T14:05:28;100097.66;;;5.55;72.37
16664;BME280;8445;51.270;9.434;2023-02-02T14:08:06;100106.44;;;5.54;72.06
16664;BME280;8445;51.270;9.434;2023-02-02T14:10:56;100099.63;;;5.49;72.56
16664;BME280;8445;51.270;9.434;2023-02-02T14:13:46;100103.91;;;5.52;72.22
16664;BME280;8445;51.270;9.434;2023-02-02T14:19:10;100108.41;;;5.48;71.84
16664;BME280;8445;51.270;9.434;2023-02-02T14:26:50;100103.78;;;5.55;71.87
16664;BME280;8445;51.270;9.434;2023-02-02T14:45:45;100140.16;;;5.42;71.45
16664;BME280;8445;51.270;9.434;2023-02-02T14:48:22;100148.16;;;5.39;71.31
16664;BME280;8445;51.270;9.434;2023-02-02T14:50:52;100145.66;;;5.36;71.33
16664;BME280;8445;51.270;9.434;2023-02-02T14:53:35;100151.78;;;5.37;71.79
16664;BME280;8445;51.270;9.434;2023-02-02T14:56:05;100156.28;;;5.33;71.86
16664;BME280;8445;51.270;9.434;2023-02-02T15:06:50;100159.97;;;5.29;71.66
16664;BME280;8445;51.270;9.434;2023-02-02T15:20:40;100166.78;;;5.12;71.70
16664;BME280;8445;51.270;9.434;2023-02-02T15:28:41;100171.59;;;5.01;71.88
16664;BME280;8445;51.270;9.434;2023-02-02T15:31:28;100177.81;;;4.98;71.93
16664;BME280;8445;51.270;9.434;2023-02-02T15:34:01;100175.38;;;4.94;71.95
16664;BME280;8445;51.270;9.434;2023-02-02T15:36:31;100182.44;;;4.92;71.71
16664;BME280;8445;51.270;9.434;2023-02-02T15:39:02;100179.88;;;4.90;71.79
16664;BME280;8445;51.270;9.434;2023-02-02T15:41:36;100179.94;;;4.88;71.84
16664;BME280;8445;51.270;9.434;2023-02-02T15:44:32;100178.31;;;4.86;71.84
16664;BME280;8445;51.270;9.434;2023-02-02T15:47:00;100179.47;;;4.79;71.75
16664;BME280;8445;51.270;9.434;2023-02-02T15:49:31;100178.78;;;4.73;71.85
16664;BME280;8445;51.270;9.434;2023-02-02T15:52:16;100183.31;;;4.70;72.01
16664;BME280;8445;51.270;9.434;2023-02-02T15:54:54;100189.56;;;4.66;72.21
16664;BME280;8445;51.270;9.434;2023-02-02T15:57:29;100192.31;;;4.63;72.26
16664;BME280;8445;51.270;9.434;2023-02-02T15:59:56;100196.75;;;4.60;72.11
16664;BME280;8445;51.270;9.434;2023-02-02T16:02:40;100208.97;;;4.60;72.03